sensor_id;sensor_type;location;lat;lon;timestamp;temperature;humidity
16700;DHT22;8466;52.286;21.124;2023-08-08T00:02:03;15.40;99.90
16700;DHT22;8466;52.286;21.124;2023-08-08T00:04:33;15.40;99.90
16700;DHT22;8466;52.286;21.124;2023-08-08T00:07:02;15.40;99.90
16700;DHT22;8466;52.286;21.124;2023-08-08T00:09:31;15.40;99.90
16700;DHT22;8466;52.286;21.124;2023-08-08T00:12:00;15.40;99.90
16700;DHT22;8466;52.286;21.124;2023-08-08T00:14:30;15.30;99.90
16700;DHT22;8466;52.286;21.124;2023-08-08T00:16:59;15.30;99.90
16700;DHT22;8466;52.286;21.124;2023-08-08T00:19:28;15.20;99.90
16700;DHT22;8466;52.286;21.124;2023-08-08T00:21:56;15.20;99.90
16700;DHT22;8466;52.286;21.124;2023-08-08T00:24:25;15.20;99.90
16700;DHT22;8466;52.286;21.124;2023-08-08T00:26:54;15.10;99.90
16700;DHT22;8466;52.286;21.124;2023-08-08T00:29:23;15.10;99.90
16700;DHT22;8466;52.286;21.124;2023-08-08T00:31:53;15.00;99.90
16700;DHT22;8466;52.286;21.124;2023-08-08T00:34:23;15.00;99.90
16700;DHT22;8466;52.286;21.124;2023-08-08T00:37:28;15.00;99.90
16700;DHT22;8466;52.286;21.124;2023-08-08T00:39:57;15.00;99.90
16700;DHT22;8466;52.286;21.124;2023-08-08T00:42:26;15.00;99.90
16700;DHT22;8466;52.286;21.124;2023-08-08T00:44:54;15.00;99.90
16700;DHT22;8466;52.286;21.124;2023-08-08T00:47:30;15.00;99.90
16700;DHT22;8466;52.286;21.124;2023-08-08T00:50:00;15.00;99.90
16700;DHT22;8466;52.286;21.124;2023-08-08T00:52:29;15.10;99.90
16700;DHT22;8466;52.286;21.124;2023-08-08T00:54:59;15.10;99.90
16700;DHT22;8466;52.286;21.124;2023-08-08T00:57:28;15.20;99.90
16700;DHT22;8466;52.286;21.124;2023-08-08T00:59:57;15.20;99.90
16700;DHT22;8466;52.286;21.124;2023-08-08T01:02:26;15.20;99.90
16700;DHT22;8466;52.286;21.124;2023-08-08T01:04:56;15.20;99.90
16700;DHT22;8466;52.286;21.124;2023-08-08T01:07:31;15.20;99.90
16700;DHT22;8466;52.286;21.124;2023-08-08T01:10:05;15.20;99.90
16700;DHT22;8466;52.286;21.124;2023-08-08T01:12:39;15.20;99.90
16700;DHT22;8466;52.286;21.124;2023-08-08T01:15:09;15.20;99.90
16700;DHT22;8466;52.286;21.124;2023-08-08T01:17:39;15.10;99.90
16700;DHT22;8466;52.286;21.124;2023-08-08T01:20:12;15.00;99.90
16700;DHT22;8466;52.286;21.124;2023-08-08T01:22:50;14.90;99.90
16700;DHT22;8466;52.286;21.124;2023-08-08T01:25:25;14.80;99.90
16700;DHT22;8466;52.286;21.124;2023-08-08T01:27:54;14.80;99.90
16700;DHT22;8466;52.286;21.124;2023-08-08T01:30:23;14.60;99.90
16700;DHT22;8466;52.286;21.124;2023-08-08T01:32:52;14.60;99.90
16700;DHT22;8466;52.286;21.124;2023-08-08T01:35:21;14.60;99.90
16700;DHT22;8466;52.286;21.124;2023-08-08T01:37:56;14.60;99.90
16700;DHT22;8466;52.286;21.124;2023-08-08T01:40:29;14.40;99.90
16700;DHT22;8466;52.286;21.124;2023-08-08T01:42:58;14.40;99.90
16700;DHT22;8466;52.286;21.124;2023-08-08T01:45:27;14.40;99.90
16700;DHT22;8466;52.286;21.124;2023-08-08T01:47:56;14.20;99.90
16700;DHT22;8466;52.286;21.124;2023-08-08T01:50:25;14.30;99.90
16700;DHT22;8466;52.286;21.124;2023-08-08T01:52:54;14.20;99.90
16700;DHT22;8466;52.286;21.124;2023-08-08T01:55:22;14.20;99.90
16700;DHT22;8466;52.286;21.124;2023-08-08T01:57:53;14.20;99.90
16700;DHT22;8466;52.286;21.124;2023-08-08T02:00:21;14.10;99.90
16700;DHT22;8466;52.286;21.124;2023-08-08T02:02:51;14.10;99.90
16700;DHT22;8466;52.286;21.124;2023-08-08T02:05:20;14.00;99.90
16700;DHT22;8466;52.286;21.124;2023-08-08T02:07:49;14.00;99.90
16700;DHT22;8466;52.286;21.124;2023-08-08T02:10:18;14.00;99.90
16700;DHT22;8466;52.286;21.124;2023-08-08T02:12:46;14.10;99.90
16700;DHT22;8466;52.286;21.124;2023-08-08T02:15:17;14.10;99.90
16700;DHT22;8466;52.286;21.124;2023-08-08T02:17:46;14.10;99.90
16700;DHT22;8466;52.286;21.124;2023-08-08T02:20:15;14.10;99.90
16700;DHT22;8466;52.286;21.124;2023-08-08T02:22:45;14.10;99.90
16700;DHT22;8466;52.286;21.124;2023-08-08T02:25:14;14.10;99.90
16700;DHT22;8466;52.286;21.124;2023-08-08T02:27:43;14.10;99.90
16700;DHT22;8466;52.286;21.124;2023-08-08T02:30:13;14.00;99.90
16700;DHT22;8466;52.286;21.124;2023-08-08T02:32:43;14.00;99.90
16700;DHT22;8466;52.286;21.124;2023-08-08T02:35:12;13.90;99.90
16700;DHT22;8466;52.286;21.124;2023-08-08T02:37:41;13.90;99.90
16700;DHT22;8466;52.286;21.124;2023-08-08T02:40:10;13.80;99.90
16700;DHT22;8466;52.286;21.124;2023-08-08T02:42:39;13.80;99.90
16700;DHT22;8466;52.286;21.124;2023-08-08T02:45:08;13.70;99.90
16700;DHT22;8466;52.286;21.124;2023-08-08T02:47:37;13.70;99.90
16700;DHT22;8466;52.286;21.124;2023-08-08T02:50:08;13.60;99.90
16700;DHT22;8466;52.286;21.124;2023-08-08T02:52:37;13.70;99.90
16700;DHT22;8466;52.286;21.124;2023-08-08T02:55:07;13.60;99.90
16700;DHT22;8466;52.286;21.124;2023-08-08T02:57:36;13.70;99.90
16700;DHT22;8466;52.286;21.124;2023-08-08T03:00:06;13.60;99.90
16700;DHT22;8466;52.286;21.124;2023-08-08T03:02:35;13.60;99.90
16700;DHT22;8466;52.286;21.124;2023-08-08T03:05:05;13.50;99.90
16700;DHT22;8466;52.286;21.124;2023-08-08T03:07:35;13.60;99.90
16700;DHT22;8466;52.286;21.124;2023-08-08T03:10:05;13.50;99.90
16700;DHT22;8466;52.286;21.124;2023-08-08T03:12:33;13.50;99.90
16700;DHT22;8466;52.286;21.124;2023-08-08T03:15:02;13.50;99.90
16700;DHT22;8466;52.286;21.124;2023-08-08T03:17:32;13.40;99.90
16700;DHT22;8466;52.286;21.124;2023-08-08T03:20:01;13.40;99.90
16700;DHT22;8466;52.286;21.124;2023-08-08T03:22:34;13.30;99.90
16700;DHT22;8466;52.286;21.124;2023-08-08T03:25:04;13.30;99.90
16700;DHT22;8466;52.286;21.124;2023-08-08T03:27:33;13.30;99.90
16700;DHT22;8466;52.286;21.124;2023-08-08T03:30:02;13.30;99.90
16700;DHT22;8466;52.286;21.124;2023-08-08T03:32:30;13.40;99.90
16700;DHT22;8466;52.286;21.124;2023-08-08T03:35:02;13.30;99.90
16700;DHT22;8466;52.286;21.124;2023-08-08T03:37:32;13.30;99.90
16700;DHT22;8466;52.286;21.124;2023-08-08T03:40:05;13.30;99.90
16700;DHT22;8466;52.286;21.124;2023-08-08T03:42:35;13.30;99.90
16700;DHT22;8466;52.286;21.124;2023-08-08T03:45:04;13.30;99.90
16700;DHT22;8466;52.286;21.124;2023-08-08T03:47:33;13.40;99.90
16700;DHT22;8466;52.286;21.124;2023-08-08T03:50:02;13.40;99.90
16700;DHT22;8466;52.286;21.124;2023-08-08T03:52:31;13.40;99.90
16700;DHT22;8466;52.286;21.124;2023-08-08T03:55:04;13.50;99.90
16700;DHT22;8466;52.286;21.124;2023-08-08T03:57:33;13.50;99.90
16700;DHT22;8466;52.286;21.124;2023-08-08T04:00:03;13.50;99.90
16700;DHT22;8466;52.286;21.124;2023-08-08T04:02:35;13.50;99.90
16700;DHT22;8466;52.286;21.124;2023-08-08T04:05:05;13.50;99.90
16700;DHT22;8466;52.286;21.124;2023-08-08T04:07:34;13.50;99.90
16700;DHT22;8466;52.286;21.124;2023-08-08T04:10:07;13.50;99.90
16700;DHT22;8466;52.286;21.124;2023-08-08T04:12:37;13.80;99.90
16700;DHT22;8466;52.286;21.124;2023-08-08T04:15:06;14.10;99.90
16700;DHT22;8466;52.286;21.124;2023-08-08T04:17:35;14.40;99.90
16700;DHT22;8466;52.286;21.124;2023-08-08T04:20:06;14.80;99.90
16700;DHT22;8466;52.286;21.124;2023-08-08T04:22:37;15.50;99.90
16700;DHT22;8466;52.286;21.124;2023-08-08T04:25:08;16.30;99.90
16700;DHT22;8466;52.286;21.124;2023-08-08T04:27:37;17.40;99.90
16700;DHT22;8466;52.286;21.124;2023-08-08T04:30:07;17.50;99.90
16700;DHT22;8466;52.286;21.124;2023-08-08T04:32:36;17.20;99.90
16700;DHT22;8466;52.286;21.124;2023-08-08T04:35:07;17.30;99.90
16700;DHT22;8466;52.286;21.124;2023-08-08T04:37:36;17.80;99.90
16700;DHT22;8466;52.286;21.124;2023-08-08T04:40:08;18.00;99.90
16700;DHT22;8466;52.286;21.124;2023-08-08T04:42:37;17.80;99.90
16700;DHT22;8466;52.286;21.124;2023-08-08T04:45:06;17.40;99.90
16700;DHT22;8466;52.286;21.124;2023-08-08T04:47:35;16.90;99.90
16700;DHT22;8466;52.286;21.124;2023-08-08T04:50:08;16.50;99.90
16700;DHT22;8466;52.286;21.124;2023-08-08T04:52:36;16.20;99.90
16700;DHT22;8466;52.286;21.124;2023-08-08T04:55:06;16.00;99.90
16700;DHT22;8466;52.286;21.124;2023-08-08T04:57:36;15.90;99.90
16700;DHT22;8466;52.286;21.124;2023-08-08T05:00:06;15.80;99.90
16700;DHT22;8466;52.286;21.124;2023-08-08T05:02:36;15.60;99.90
16700;DHT22;8466;52.286;21.124;2023-08-08T05:05:07;15.60;99.90
16700;DHT22;8466;52.286;21.124;2023-08-08T05:07:36;15.50;99.90
16700;DHT22;8466;52.286;21.124;2023-08-08T05:10:06;15.50;99.90
16700;DHT22;8466;52.286;21.124;2023-08-08T05:12:36;15.60;99.90
16700;DHT22;8466;52.286;21.124;2023-08-08T05:15:05;15.70;99.90
16700;DHT22;8466;52.286;21.124;2023-08-08T05:17:34;15.90;99.90
16700;DHT22;8466;52.286;21.124;2023-08-08T05:20:04;16.20;99.90
16700;DHT22;8466;52.286;21.124;2023-08-08T05:22:33;16.40;99.90
16700;DHT22;8466;52.286;21.124;2023-08-08T05:25:02;16.50;99.90
16700;DHT22;8466;52.286;21.124;2023-08-08T05:27:32;16.60;99.90
16700;DHT22;8466;52.286;21.124;2023-08-08T05:30:07;16.70;99.90
16700;DHT22;8466;52.286;21.124;2023-08-08T05:32:39;16.70;99.90
16700;DHT22;8466;52.286;21.124;2023-08-08T05:35:08;16.70;99.90
16700;DHT22;8466;52.286;21.124;2023-08-08T05:37:37;16.80;99.90
16700;DHT22;8466;52.286;21.124;2023-08-08T05:40:07;16.90;99.90
16700;DHT22;8466;52.286;21.124;2023-08-08T05:42:38;17.00;99.90
16700;DHT22;8466;52.286;21.124;2023-08-08T05:45:12;17.10;99.90
16700;DHT22;8466;52.286;21.124;2023-08-08T05:47:42;17.30;99.90
16700;DHT22;8466;52.286;21.124;2023-08-08T05:50:11;17.40;99.90
16700;DHT22;8466;52.286;21.124;2023-08-08T05:52:40;17.50;99.90
16700;DHT22;8466;52.286;21.124;2023-08-08T05:55:09;17.60;99.90
16700;DHT22;8466;52.286;21.124;2023-08-08T05:57:38;17.80;99.90
16700;DHT22;8466;52.286;21.124;2023-08-08T06:00:09;17.80;99.90
16700;DHT22;8466;52.286;21.124;2023-08-08T06:02:38;17.90;99.90
16700;DHT22;8466;52.286;21.124;2023-08-08T06:05:08;17.90;99.90
16700;DHT22;8466;52.286;21.124;2023-08-08T06:07:37;17.90;99.90
16700;DHT22;8466;52.286;21.124;2023-08-08T06:10:07;17.80;99.90
16700;DHT22;8466;52.286;21.124;2023-08-08T06:12:36;17.80;99.90
16700;DHT22;8466;52.286;21.124;2023-08-08T06:15:06;17.70;99.90
16700;DHT22;8466;52.286;21.124;2023-08-08T06:17:37;17.70;99.90
16700;DHT22;8466;52.286;21.124;2023-08-08T06:20:07;17.60;99.90
16700;DHT22;8466;52.286;21.124;2023-08-08T06:22:37;17.70;99.90
16700;DHT22;8466;52.286;21.124;2023-08-08T06:25:07;17.70;99.90
16700;DHT22;8466;52.286;21.124;2023-08-08T06:27:36;17.90;99.90
16700;DHT22;8466;52.286;21.124;2023-08-08T06:30:06;18.00;99.90
16700;DHT22;8466;52.286;21.124;2023-08-08T06:32:37;18.10;99.90
16700;DHT22;8466;52.286;21.124;2023-08-08T06:35:06;18.20;99.90
16700;DHT22;8466;52.286;21.124;2023-08-08T06:37:37;18.30;99.90
16700;DHT22;8466;52.286;21.124;2023-08-08T06:40:07;18.40;99.90
16700;DHT22;8466;52.286;21.124;2023-08-08T06:42:36;18.50;99.90
16700;DHT22;8466;52.286;21.124;2023-08-08T06:45:06;18.60;99.90
16700;DHT22;8466;52.286;21.124;2023-08-08T06:47:38;18.70;99.90
16700;DHT22;8466;52.286;21.124;2023-08-08T06:50:08;18.70;99.90
16700;DHT22;8466;52.286;21.124;2023-08-08T06:52:37;18.60;99.90
16700;DHT22;8466;52.286;21.124;2023-08-08T06:55:06;18.70;99.90
16700;DHT22;8466;52.286;21.124;2023-08-08T06:57:35;18.80;99.90
16700;DHT22;8466;52.286;21.124;2023-08-08T07:00:05;18.90;99.90
16700;DHT22;8466;52.286;21.124;2023-08-08T07:02:35;19.00;99.90
16700;DHT22;8466;52.286;21.124;2023-08-08T07:05:06;19.10;99.90
16700;DHT22;8466;52.286;21.124;2023-08-08T07:07:37;19.10;99.90
16700;DHT22;8466;52.286;21.124;2023-08-08T07:10:07;19.20;99.90
16700;DHT22;8466;52.286;21.124;2023-08-08T07:12:36;19.20;99.90
16700;DHT22;8466;52.286;21.124;2023-08-08T07:15:07;19.30;99.90
16700;DHT22;8466;52.286;21.124;2023-08-08T07:17:36;19.40;99.90
16700;DHT22;8466;52.286;21.124;2023-08-08T07:20:07;19.60;99.90
16700;DHT22;8466;52.286;21.124;2023-08-08T07:22:37;19.70;99.90
16700;DHT22;8466;52.286;21.124;2023-08-08T07:25:07;19.80;99.90
16700;DHT22;8466;52.286;21.124;2023-08-08T07:27:39;19.80;99.90
16700;DHT22;8466;52.286;21.124;2023-08-08T07:30:10;20.00;99.90
16700;DHT22;8466;52.286;21.124;2023-08-08T07:32:40;20.10;99.90
16700;DHT22;8466;52.286;21.124;2023-08-08T07:35:10;20.30;99.90
16700;DHT22;8466;52.286;21.124;2023-08-08T07:37:39;20.30;99.90
16700;DHT22;8466;52.286;21.124;2023-08-08T07:40:14;20.50;99.90
16700;DHT22;8466;52.286;21.124;2023-08-08T07:42:45;20.60;99.90
16700;DHT22;8466;52.286;21.124;2023-08-08T07:45:14;20.90;99.90
16700;DHT22;8466;52.286;21.124;2023-08-08T07:47:44;21.00;99.90
16700;DHT22;8466;52.286;21.124;2023-08-08T07:50:15;21.00;99.90
16700;DHT22;8466;52.286;21.124;2023-08-08T07:52:44;21.00;99.90
16700;DHT22;8466;52.286;21.124;2023-08-08T07:55:13;21.00;99.90
16700;DHT22;8466;52.286;21.124;2023-08-08T07:57:42;20.90;99.90
16700;DHT22;8466;52.286;21.124;2023-08-08T08:00:12;20.70;99.90
16700;DHT22;8466;52.286;21.124;2023-08-08T08:02:42;20.50;99.90
16700;DHT22;8466;52.286;21.124;2023-08-08T08:05:14;20.40;99.90
16700;DHT22;8466;52.286;21.124;2023-08-08T08:07:43;20.40;99.90
16700;DHT22;8466;52.286;21.124;2023-08-08T08:10:12;20.40;99.90
16700;DHT22;8466;52.286;21.124;2023-08-08T08:12:41;20.40;99.90
16700;DHT22;8466;52.286;21.124;2023-08-08T08:15:10;20.40;99.90
16700;DHT22;8466;52.286;21.124;2023-08-08T08:17:39;20.40;99.90
16700;DHT22;8466;52.286;21.124;2023-08-08T08:20:09;20.10;99.90
16700;DHT22;8466;52.286;21.124;2023-08-08T08:22:41;19.80;99.90
16700;DHT22;8466;52.286;21.124;2023-08-08T08:25:10;19.40;99.90
16700;DHT22;8466;52.286;21.124;2023-08-08T08:27:39;19.20;99.90
16700;DHT22;8466;52.286;21.124;2023-08-08T08:30:08;18.80;99.90
16700;DHT22;8466;52.286;21.124;2023-08-08T08:32:39;18.70;99.90
16700;DHT22;8466;52.286;21.124;2023-08-08T08:35:09;18.60;99.90
16700;DHT22;8466;52.286;21.124;2023-08-08T08:37:41;18.50;99.90
16700;DHT22;8466;52.286;21.124;2023-08-08T08:40:10;18.40;99.90
16700;DHT22;8466;52.286;21.124;2023-08-08T08:42:40;18.30;99.90
16700;DHT22;8466;52.286;21.124;2023-08-08T08:45:09;18.30;99.90
16700;DHT22;8466;52.286;21.124;2023-08-08T08:47:42;18.40;99.90
16700;DHT22;8466;52.286;21.124;2023-08-08T08:50:44;18.30;99.90
16700;DHT22;8466;52.286;21.124;2023-08-08T08:56:59;18.10;99.90
16700;DHT22;8466;52.286;21.124;2023-08-08T08:59:31;18.20;99.90
16700;DHT22;8466;52.286;21.124;2023-08-08T09:02:03;18.40;99.90
16700;DHT22;8466;52.286;21.124;2023-08-08T09:04:33;18.80;99.90
16700;DHT22;8466;52.286;21.124;2023-08-08T09:07:05;19.20;99.90
16700;DHT22;8466;52.286;21.124;2023-08-08T09:09:36;19.70;99.90
16700;DHT22;8466;52.286;21.124;2023-08-08T09:12:08;20.10;99.90
16700;DHT22;8466;52.286;21.124;2023-08-08T09:14:40;20.50;99.90
16700;DHT22;8466;52.286;21.124;2023-08-08T09:17:13;20.90;99.90
16700;DHT22;8466;52.286;21.124;2023-08-08T09:19:43;21.20;98.30
16700;DHT22;8466;52.286;21.124;2023-08-08T09:22:12;21.30;98.30
16700;DHT22;8466;52.286;21.124;2023-08-08T09:24:42;21.20;98.70
16700;DHT22;8466;52.286;21.124;2023-08-08T09:27:13;21.10;98.80
16700;DHT22;8466;52.286;21.124;2023-08-08T09:29:42;20.90;97.70
16700;DHT22;8466;52.286;21.124;2023-08-08T09:32:12;20.90;98.70
16700;DHT22;8466;52.286;21.124;2023-08-08T09:34:42;20.80;98.10
16700;DHT22;8466;52.286;21.124;2023-08-08T09:37:11;20.90;98.30
16700;DHT22;8466;52.286;21.124;2023-08-08T09:39:41;20.90;97.50
16700;DHT22;8466;52.286;21.124;2023-08-08T09:42:13;21.10;97.10
16700;DHT22;8466;52.286;21.124;2023-08-08T09:44:43;21.40;97.90
16700;DHT22;8466;52.286;21.124;2023-08-08T09:47:12;21.80;97.10
16700;DHT22;8466;52.286;21.124;2023-08-08T09:49:42;22.00;95.10
16700;DHT22;8466;52.286;21.124;2023-08-08T09:52:11;22.10;94.60
16700;DHT22;8466;52.286;21.124;2023-08-08T09:54:41;22.30;94.60
16700;DHT22;8466;52.286;21.124;2023-08-08T09:57:12;22.30;94.00
16700;DHT22;8466;52.286;21.124;2023-08-08T09:59:42;22.20;94.00
16700;DHT22;8466;52.286;21.124;2023-08-08T10:02:14;22.20;93.50
16700;DHT22;8466;52.286;21.124;2023-08-08T10:04:44;22.10;94.00
16700;DHT22;8466;52.286;21.124;2023-08-08T10:07:14;21.90;93.80
16700;DHT22;8466;52.286;21.124;2023-08-08T10:09:43;21.70;94.00
16700;DHT22;8466;52.286;21.124;2023-08-08T10:12:13;21.50;94.20
16700;DHT22;8466;52.286;21.124;2023-08-08T10:14:44;21.30;94.00
16700;DHT22;8466;52.286;21.124;2023-08-08T10:17:15;21.10;95.00
16700;DHT22;8466;52.286;21.124;2023-08-08T10:19:51;20.90;95.00
16700;DHT22;8466;52.286;21.124;2023-08-08T10:22:23;20.70;94.90
16700;DHT22;8466;52.286;21.124;2023-08-08T10:24:54;20.60;95.00
16700;DHT22;8466;52.286;21.124;2023-08-08T10:27:33;20.40;95.70
16700;DHT22;8466;52.286;21.124;2023-08-08T10:30:04;20.40;96.40
16700;DHT22;8466;52.286;21.124;2023-08-08T10:32:42;20.50;95.90
16700;DHT22;8466;52.286;21.124;2023-08-08T10:35:12;21.00;94.70
16700;DHT22;8466;52.286;21.124;2023-08-08T10:37:52;21.40;93.70
16700;DHT22;8466;52.286;21.124;2023-08-08T10:40:22;21.90;93.80
16700;DHT22;8466;52.286;21.124;2023-08-08T10:42:52;22.20;92.70
16700;DHT22;8466;52.286;21.124;2023-08-08T10:45:29;22.30;91.20
16700;DHT22;8466;52.286;21.124;2023-08-08T10:48:08;22.60;92.10
16700;DHT22;8466;52.286;21.124;2023-08-08T10:50:40;22.80;91.20
16700;DHT22;8466;52.286;21.124;2023-08-08T10:53:12;22.60;91.80
16700;DHT22;8466;52.286;21.124;2023-08-08T10:55:41;22.50;92.10
16700;DHT22;8466;52.286;21.124;2023-08-08T10:58:14;22.40;91.50
16700;DHT22;8466;52.286;21.124;2023-08-08T11:00:47;22.10;92.30
16700;DHT22;8466;52.286;21.124;2023-08-08T11:03:19;21.90;92.90
16700;DHT22;8466;52.286;21.124;2023-08-08T11:05:49;21.70;91.70
16700;DHT22;8466;52.286;21.124;2023-08-08T11:08:19;21.60;90.90
16700;DHT22;8466;52.286;21.124;2023-08-08T11:10:52;21.50;90.60
16700;DHT22;8466;52.286;21.124;2023-08-08T11:13:23;21.50;90.70
16700;DHT22;8466;52.286;21.124;2023-08-08T11:15:52;21.50;91.20
16700;DHT22;8466;52.286;21.124;2023-08-08T11:18:21;21.60;91.20
16700;DHT22;8466;52.286;21.124;2023-08-08T11:20:50;21.90;91.40
16700;DHT22;8466;52.286;21.124;2023-08-08T11:23:28;22.20;90.80
16700;DHT22;8466;52.286;21.124;2023-08-08T11:25:59;22.40;88.60
16700;DHT22;8466;52.286;21.124;2023-08-08T11:28:34;22.50;87.20
16700;DHT22;8466;52.286;21.124;2023-08-08T11:31:03;22.60;88.90
16700;DHT22;8466;52.286;21.124;2023-08-08T11:33:32;22.70;88.10
16700;DHT22;8466;52.286;21.124;2023-08-08T11:36:02;22.80;89.60
16700;DHT22;8466;52.286;21.124;2023-08-08T11:38:33;22.90;85.00
16700;DHT22;8466;52.286;21.124;2023-08-08T11:41:02;23.10;85.10
16700;DHT22;8466;52.286;21.124;2023-08-08T11:43:33;23.20;84.30
16700;DHT22;8466;52.286;21.124;2023-08-08T11:46:10;23.30;84.50
16700;DHT22;8466;52.286;21.124;2023-08-08T11:48:47;23.30;81.20
16700;DHT22;8466;52.286;21.124;2023-08-08T11:51:18;23.20;80.50
16700;DHT22;8466;52.286;21.124;2023-08-08T11:53:51;23.10;79.50
16700;DHT22;8466;52.286;21.124;2023-08-08T11:56:20;22.90;81.10
16700;DHT22;8466;52.286;21.124;2023-08-08T11:58:51;22.80;82.60
16700;DHT22;8466;52.286;21.124;2023-08-08T12:01:21;22.80;82.20
16700;DHT22;8466;52.286;21.124;2023-08-08T12:03:50;22.80;82.80
16700;DHT22;8466;52.286;21.124;2023-08-08T12:06:20;22.80;81.50
16700;DHT22;8466;52.286;21.124;2023-08-08T12:08:49;22.90;84.20
16700;DHT22;8466;52.286;21.124;2023-08-08T12:11:19;23.10;83.00
16700;DHT22;8466;52.286;21.124;2023-08-08T12:13:59;23.20;81.60
16700;DHT22;8466;52.286;21.124;2023-08-08T12:16:29;23.10;80.50
16700;DHT22;8466;52.286;21.124;2023-08-08T12:19:02;22.90;83.40
16700;DHT22;8466;52.286;21.124;2023-08-08T12:21:31;22.90;81.40
16700;DHT22;8466;52.286;21.124;2023-08-08T12:24:00;22.90;82.10
16700;DHT22;8466;52.286;21.124;2023-08-08T12:26:30;22.80;82.40
16700;DHT22;8466;52.286;21.124;2023-08-08T12:29:00;22.70;81.50
16700;DHT22;8466;52.286;21.124;2023-08-08T12:31:29;22.60;81.50
16700;DHT22;8466;52.286;21.124;2023-08-08T12:33:58;22.60;81.80
16700;DHT22;8466;52.286;21.124;2023-08-08T12:36:27;22.50;81.90
16700;DHT22;8466;52.286;21.124;2023-08-08T12:38:56;22.50;82.20
16700;DHT22;8466;52.286;21.124;2023-08-08T12:41:25;22.40;83.80
16700;DHT22;8466;52.286;21.124;2023-08-08T12:43:56;22.40;84.20
16700;DHT22;8466;52.286;21.124;2023-08-08T12:46:27;22.30;81.50
16700;DHT22;8466;52.286;21.124;2023-08-08T12:48:56;22.10;79.60
16700;DHT22;8466;52.286;21.124;2023-08-08T12:51:25;21.90;80.80
16700;DHT22;8466;52.286;21.124;2023-08-08T12:53:54;21.80;80.20
16700;DHT22;8466;52.286;21.124;2023-08-08T12:56:23;21.90;82.20
16700;DHT22;8466;52.286;21.124;2023-08-08T12:58:52;22.00;82.40
16700;DHT22;8466;52.286;21.124;2023-08-08T13:01:22;22.30;81.40
16700;DHT22;8466;52.286;21.124;2023-08-08T13:03:54;22.40;81.50
16700;DHT22;8466;52.286;21.124;2023-08-08T13:06:29;22.40;81.80
16700;DHT22;8466;52.286;21.124;2023-08-08T13:08:58;22.30;81.40
16700;DHT22;8466;52.286;21.124;2023-08-08T13:11:29;22.20;82.70
16700;DHT22;8466;52.286;21.124;2023-08-08T13:13:58;22.30;82.40
16700;DHT22;8466;52.286;21.124;2023-08-08T13:16:27;22.60;82.30
16700;DHT22;8466;52.286;21.124;2023-08-08T13:19:00;22.70;80.10
16700;DHT22;8466;52.286;21.124;2023-08-08T13:21:29;22.90;80.40
16700;DHT22;8466;52.286;21.124;2023-08-08T13:23:57;23.00;79.80
16700;DHT22;8466;52.286;21.124;2023-08-08T13:26:27;23.00;76.80
16700;DHT22;8466;52.286;21.124;2023-08-08T13:28:56;23.10;78.30
16700;DHT22;8466;52.286;21.124;2023-08-08T13:31:24;23.20;77.30
16700;DHT22;8466;52.286;21.124;2023-08-08T13:33:53;23.20;76.70
16700;DHT22;8466;52.286;21.124;2023-08-08T13:36:26;23.10;77.70
16700;DHT22;8466;52.286;21.124;2023-08-08T13:38:55;23.10;78.50
16700;DHT22;8466;52.286;21.124;2023-08-08T13:41:23;23.00;77.10
16700;DHT22;8466;52.286;21.124;2023-08-08T13:43:52;22.90;77.80
16700;DHT22;8466;52.286;21.124;2023-08-08T13:46:21;23.10;77.90
16700;DHT22;8466;52.286;21.124;2023-08-08T13:48:51;23.20;78.80
16700;DHT22;8466;52.286;21.124;2023-08-08T13:51:20;23.40;80.70
16700;DHT22;8466;52.286;21.124;2023-08-08T13:53:50;23.50;78.60
16700;DHT22;8466;52.286;21.124;2023-08-08T13:56:21;23.40;78.30
16700;DHT22;8466;52.286;21.124;2023-08-08T13:58:50;23.30;79.60
16700;DHT22;8466;52.286;21.124;2023-08-08T14:01:19;23.10;79.40
16700;DHT22;8466;52.286;21.124;2023-08-08T14:03:51;22.80;79.70
16700;DHT22;8466;52.286;21.124;2023-08-08T14:06:20;22.60;82.00
16700;DHT22;8466;52.286;21.124;2023-08-08T14:08:50;22.30;82.40
16700;DHT22;8466;52.286;21.124;2023-08-08T14:11:19;22.00;81.30
16700;DHT22;8466;52.286;21.124;2023-08-08T14:13:48;21.90;84.00
16700;DHT22;8466;52.286;21.124;2023-08-08T14:16:17;21.90;84.50
16700;DHT22;8466;52.286;21.124;2023-08-08T14:18:54;22.00;82.70
16700;DHT22;8466;52.286;21.124;2023-08-08T14:21:25;22.00;84.20
16700;DHT22;8466;52.286;21.124;2023-08-08T14:23:57;22.00;82.70
16700;DHT22;8466;52.286;21.124;2023-08-08T14:26:26;21.90;83.80
16700;DHT22;8466;52.286;21.124;2023-08-08T14:28:55;21.70;84.40
16700;DHT22;8466;52.286;21.124;2023-08-08T14:31:24;21.50;83.70
16700;DHT22;8466;52.286;21.124;2023-08-08T14:33:53;21.30;84.60
16700;DHT22;8466;52.286;21.124;2023-08-08T14:36:23;21.20;86.30
16700;DHT22;8466;52.286;21.124;2023-08-08T14:38:52;21.10;88.60
16700;DHT22;8466;52.286;21.124;2023-08-08T14:41:23;21.00;87.30
16700;DHT22;8466;52.286;21.124;2023-08-08T14:43:52;21.20;87.60
16700;DHT22;8466;52.286;21.124;2023-08-08T14:46:21;21.10;87.10
16700;DHT22;8466;52.286;21.124;2023-08-08T14:48:50;21.10;87.30
16700;DHT22;8466;52.286;21.124;2023-08-08T14:51:20;21.30;87.70
16700;DHT22;8466;52.286;21.124;2023-08-08T14:53:49;21.60;87.10
16700;DHT22;8466;52.286;21.124;2023-08-08T14:56:23;21.80;86.90
16700;DHT22;8466;52.286;21.124;2023-08-08T14:58:52;22.00;83.70
16700;DHT22;8466;52.286;21.124;2023-08-08T15:01:21;22.10;85.60
16700;DHT22;8466;52.286;21.124;2023-08-08T15:03:53;22.40;83.70
16700;DHT22;8466;52.286;21.124;2023-08-08T15:06:24;22.60;82.70
16700;DHT22;8466;52.286;21.124;2023-08-08T15:08:53;22.60;83.80
16700;DHT22;8466;52.286;21.124;2023-08-08T15:11:24;22.60;82.20
16700;DHT22;8466;52.286;21.124;2023-08-08T15:13:58;22.70;82.20
16700;DHT22;8466;52.286;21.124;2023-08-08T15:16:41;22.80;82.00
16700;DHT22;8466;52.286;21.124;2023-08-08T15:19:16;22.60;81.70
16700;DHT22;8466;52.286;21.124;2023-08-08T15:21:45;22.50;82.80
16700;DHT22;8466;52.286;21.124;2023-08-08T15:24:14;22.20;82.90
16700;DHT22;8466;52.286;21.124;2023-08-08T15:26:45;22.00;84.10
16700;DHT22;8466;52.286;21.124;2023-08-08T15:29:14;21.70;85.60
16700;DHT22;8466;52.286;21.124;2023-08-08T15:31:43;21.50;86.60
16700;DHT22;8466;52.286;21.124;2023-08-08T15:34:12;21.30;86.00
16700;DHT22;8466;52.286;21.124;2023-08-08T15:36:43;21.10;87.50
16700;DHT22;8466;52.286;21.124;2023-08-08T15:39:12;20.90;88.50
16700;DHT22;8466;52.286;21.124;2023-08-08T15:41:41;20.90;89.80
16700;DHT22;8466;52.286;21.124;2023-08-08T15:44:12;20.90;90.50
16700;DHT22;8466;52.286;21.124;2023-08-08T15:46:41;20.90;89.90
16700;DHT22;8466;52.286;21.124;2023-08-08T15:49:13;20.90;88.70
16700;DHT22;8466;52.286;21.124;2023-08-08T15:51:48;21.00;89.00
16700;DHT22;8466;52.286;21.124;2023-08-08T15:54:17;21.10;89.20